createdAt,value
2023-03-03T00:00:11.109Z,32.50
2023-03-03T00:01:11.385Z,32.90
2023-03-03T00:02:11.686Z,32.20
2023-03-03T00:03:11.958Z,34.50
2023-03-03T00:04:12.260Z,31.50
2023-03-03T00:05:12.526Z,32.60
2023-03-03T00:06:12.831Z,32.90
2023-03-03T00:07:13.107Z,32.00
2023-03-03T00:08:13.390Z,30.30
2023-03-03T00:09:13.712Z,33.80
2023-03-03T00:10:14.004Z,33.20
2023-03-03T00:11:14.291Z,34.20
2023-03-03T00:12:14.584Z,33.30
2023-03-03T00:13:14.850Z,33.60
2023-03-03T00:14:15.166Z,34.60
2023-03-03T00:15:15.465Z,34.90
2023-03-03T00:16:15.787Z,35.30
2023-03-03T00:17:16.069Z,34.30
2023-03-03T00:18:16.358Z,32.90
2023-03-03T00:19:16.649Z,32.60
2023-03-03T00:20:16.936Z,34.90
2023-03-03T00:21:17.235Z,36.10
2023-03-03T00:22:17.554Z,31.40
2023-03-03T00:23:17.843Z,33.10
2023-03-03T00:24:18.163Z,33.60
2023-03-03T00:25:18.474Z,34.50
2023-03-03T00:26:18.761Z,33.40
2023-03-03T00:27:19.153Z,33.10
2023-03-03T00:28:19.340Z,34.10
2023-03-03T00:29:19.650Z,33.90
2023-03-03T00:30:19.928Z,34.20
2023-03-03T00:31:20.312Z,39.10
2023-03-03T00:32:20.566Z,34.70
2023-03-03T00:33:20.810Z,33.80
2023-03-03T00:34:21.119Z,34.00
2023-03-03T00:35:21.458Z,31.60
2023-03-03T00:36:21.644Z,36.30
2023-03-03T00:37:21.935Z,38.30
2023-03-03T00:38:22.242Z,35.60
2023-03-03T00:39:22.527Z,35.80
2023-03-03T00:40:22.803Z,33.80
2023-03-03T00:41:23.937Z,35.20
2023-03-03T00:42:23.406Z,33.80
2023-03-03T00:43:23.778Z,34.80
2023-03-03T00:44:23.936Z,38.20
2023-03-03T00:45:24.229Z,37.30
2023-03-03T00:46:24.519Z,35.60
2023-03-03T00:47:24.839Z,33.00
2023-03-03T00:48:25.125Z,35.20
2023-03-03T00:49:25.440Z,34.70
2023-03-03T00:50:25.717Z,35.00
2023-03-03T00:51:26.003Z,43.60
2023-03-03T00:52:26.278Z,40.30
2023-03-03T00:53:26.565Z,40.30
2023-03-03T00:54:26.853Z,34.90
2023-03-03T00:55:27.133Z,34.00
2023-03-03T00:56:27.425Z,36.50
2023-03-03T00:57:27.703Z,36.30
2023-03-03T00:58:27.979Z,35.10
2023-03-03T00:59:28.282Z,36.70
2023-03-03T01:00:28.561Z,36.90
2023-03-03T01:01:28.851Z,37.10
2023-03-03T01:02:29.117Z,37.40
2023-03-03T01:03:29.405Z,34.90
2023-03-03T01:04:29.704Z,36.80
2023-03-03T01:05:29.969Z,34.80
2023-03-03T01:06:30.250Z,35.60
2023-03-03T01:07:30.553Z,38.10
2023-03-03T01:08:30.840Z,36.70
2023-03-03T01:09:31.151Z,39.40
2023-03-03T01:10:31.416Z,37.80
2023-03-03T01:11:31.735Z,35.90
2023-03-03T01:12:32.009Z,38.00
2023-03-03T01:13:32.278Z,37.50
2023-03-03T01:14:32.585Z,40.50
2023-03-03T01:15:32.881Z,50.40
2023-03-03T01:16:33.136Z,46.20
2023-03-03T01:17:33.420Z,39.10
2023-03-03T01:18:33.709Z,37.30
2023-03-03T01:19:34.005Z,34.10
2023-03-03T01:20:34.294Z,33.80
2023-03-03T01:21:34.589Z,30.60
2023-03-03T01:22:34.865Z,31.80
2023-03-03T01:23:35.152Z,31.80
2023-03-03T01:24:35.447Z,31.40
2023-03-03T01:25:35.722Z,32.30
2023-03-03T01:26:35.994Z,31.10
2023-03-03T01:27:36.272Z,29.40
2023-03-03T01:28:36.535Z,31.90
2023-03-03T01:29:36.848Z,30.10
2023-03-03T01:30:37.110Z,31.30
2023-03-03T01:31:37.467Z,31.10
2023-03-03T01:32:37.624Z,30.80
2023-03-03T01:33:37.898Z,31.60
2023-03-03T01:34:38.196Z,30.50
2023-03-03T01:35:38.505Z,31.10
2023-03-03T01:36:38.773Z,33.00
2023-03-03T01:37:39.074Z,32.90
2023-03-03T01:38:39.347Z,32.00
2023-03-03T01:39:39.641Z,32.60
2023-03-03T01:40:39.916Z,30.90
2023-03-03T01:41:40.200Z,33.00
2023-03-03T01:42:40.474Z,32.10
2023-03-03T01:43:40.817Z,32.20
2023-03-03T01:44:41.110Z,31.70
2023-03-03T01:45:41.418Z,34.30
2023-03-03T01:46:41.746Z,32.70
2023-03-03T01:47:41.977Z,33.70
2023-03-03T01:48:42.252Z,34.40
2023-03-03T01:49:42.547Z,32.40
2023-03-03T01:50:42.831Z,36.60
2023-03-03T01:51:43.112Z,34.90
2023-03-03T01:52:43.384Z,35.50
2023-03-03T01:53:43.661Z,34.90
2023-03-03T01:54:43.964Z,36.30
2023-03-03T01:55:44.240Z,38.00
2023-03-03T01:56:44.546Z,33.20
2023-03-03T01:57:44.800Z,34.20
2023-03-03T01:58:45.104Z,36.20
2023-03-03T01:59:45.412Z,36.00
2023-03-03T02:00:45.696Z,35.60
2023-03-03T02:01:46.062Z,36.60
2023-03-03T02:02:46.296Z,36.40
2023-03-03T02:03:46.580Z,36.10
2023-03-03T02:04:46.899Z,37.00
2023-03-03T02:05:47.198Z,35.30
2023-03-03T02:06:47.466Z,37.20
2023-03-03T02:07:47.752Z,36.60
2023-03-03T02:08:48.020Z,39.00
2023-03-03T02:09:48.313Z,38.40
2023-03-03T02:10:48.591Z,36.40
2023-03-03T02:11:48.899Z,41.50
2023-03-03T02:12:49.181Z,39.90
2023-03-03T02:13:49.955Z,39.10
2023-03-03T02:14:49.835Z,36.90
2023-03-03T02:15:50.137Z,40.20
2023-03-03T02:16:50.429Z,41.40
2023-03-03T02:17:50.732Z,42.70
2023-03-03T02:18:51.010Z,43.70
2023-03-03T02:19:51.337Z,45.20
2023-03-03T02:20:51.609Z,43.80
2023-03-03T02:21:51.962Z,40.80
2023-03-03T02:22:52.130Z,41.70
2023-03-03T02:23:52.423Z,40.50
2023-03-03T02:24:52.751Z,42.50
2023-03-03T02:25:53.038Z,41.10
2023-03-03T02:26:53.307Z,42.00
2023-03-03T02:27:53.614Z,40.90
2023-03-03T02:28:53.916Z,41.90
2023-03-03T02:29:54.215Z,41.30
2023-03-03T02:30:54.491Z,45.90
2023-03-03T02:31:54.959Z,44.00
2023-03-03T02:32:55.060Z,43.90
2023-03-03T02:33:55.377Z,42.30
2023-03-03T02:34:55.667Z,45.00
2023-03-03T02:35:56.012Z,46.40
2023-03-03T02:36:56.283Z,46.20
2023-03-03T02:37:56.588Z,41.70
2023-03-03T02:38:56.878Z,44.80
2023-03-03T02:39:57.194Z,44.10
2023-03-03T02:40:57.477Z,43.90
2023-03-03T02:41:57.774Z,47.20
2023-03-03T02:42:58.068Z,48.50
2023-03-03T02:43:58.357Z,47.20
2023-03-03T02:44:58.674Z,45.30
2023-03-03T02:45:59.018Z,47.80
2023-03-03T02:46:59.295Z,48.60
2023-03-03T02:47:59.580Z,50.50
2023-03-03T02:48:59.869Z,44.70
2023-03-03T02:50:00.175Z,47.10
2023-03-03T02:51:00.468Z,50.60
2023-03-03T02:52:00.814Z,47.30
2023-03-03T02:53:01.107Z,46.30
2023-03-03T02:54:01.407Z,48.70
2023-03-03T02:55:02.169Z,47.30
2023-03-03T02:56:02.013Z,47.80
2023-03-03T02:57:02.304Z,47.50
2023-03-03T02:58:02.605Z,46.40
2023-03-03T02:59:02.879Z,46.10
2023-03-03T03:00:03.230Z,46.40
2023-03-03T03:01:03.747Z,47.50
2023-03-03T03:02:03.850Z,48.20
2023-03-03T03:03:04.138Z,47.60
2023-03-03T03:04:04.517Z,51.40
2023-03-03T03:05:04.690Z,49.20
2023-03-03T03:06:04.982Z,49.20
2023-03-03T03:07:05.292Z,51.50
2023-03-03T03:08:05.574Z,50.40
2023-03-03T03:09:05.849Z,48.80
2023-03-03T03:10:06.181Z,48.90
2023-03-03T03:11:06.490Z,48.30
2023-03-03T03:12:06.787Z,51.00
2023-03-03T03:13:07.084Z,50.10
2023-03-03T03:14:07.420Z,50.50
2023-03-03T03:15:07.732Z,53.50
2023-03-03T03:16:08.032Z,53.70
2023-03-03T03:17:15.342Z,53.00
2023-03-03T03:18:08.607Z,57.20
2023-03-03T03:19:08.899Z,52.00
2023-03-03T03:20:09.214Z,53.80
2023-03-03T03:21:09.507Z,53.60
2023-03-03T03:22:09.814Z,53.00
2023-03-03T03:23:10.113Z,55.60
2023-03-03T03:24:10.404Z,55.60
2023-03-03T03:25:10.709Z,54.90
2023-03-03T03:26:11.011Z,55.70
2023-03-03T03:27:11.307Z,57.10
2023-03-03T03:28:11.611Z,56.80
2023-03-03T03:29:11.901Z,56.10
2023-03-03T03:30:12.223Z,56.30
2023-03-03T03:31:12.562Z,61.30
2023-03-03T03:32:12.929Z,61.30
2023-03-03T03:33:13.121Z,59.00
2023-03-03T03:34:13.416Z,58.50
2023-03-03T03:35:13.728Z,57.60
2023-03-03T03:36:14.053Z,58.70
2023-03-03T03:37:14.337Z,58.10
2023-03-03T03:38:14.674Z,59.10
2023-03-03T03:39:14.961Z,60.60
2023-03-03T03:40:15.290Z,57.10
2023-03-03T03:41:15.585Z,61.20
2023-03-03T03:42:15.886Z,55.00
2023-03-03T03:43:16.176Z,50.60
2023-03-03T03:44:16.475Z,55.00
2023-03-03T03:45:16.789Z,54.50
2023-03-03T03:46:17.201Z,55.90
2023-03-03T03:47:17.373Z,54.10
2023-03-03T03:48:17.689Z,52.90
2023-03-03T03:49:20.460Z,51.60
2023-03-03T03:50:18.323Z,51.20
2023-03-03T03:51:18.616Z,51.80
2023-03-03T03:52:18.913Z,49.10
2023-03-03T03:53:19.198Z,47.20
2023-03-03T03:54:19.502Z,49.50
2023-03-03T03:55:19.797Z,49.70
2023-03-03T03:56:20.090Z,45.70
2023-03-03T03:57:20.384Z,46.10
2023-03-03T03:58:20.692Z,48.70
2023-03-03T03:59:21.013Z,49.20
2023-03-03T04:00:21.309Z,55.60
2023-03-03T04:01:21.585Z,52.70
2023-03-03T04:02:21.932Z,55.00
2023-03-03T04:03:22.245Z,53.10
2023-03-03T04:04:22.465Z,54.10
2023-03-03T04:05:22.770Z,55.70
2023-03-03T04:06:23.062Z,55.90
2023-03-03T04:07:23.350Z,55.20
2023-03-03T04:08:23.642Z,59.40
2023-03-03T04:09:23.937Z,61.10
2023-03-03T04:10:24.267Z,61.40
2023-03-03T04:11:24.553Z,63.70
2023-03-03T04:12:24.843Z,66.80
2023-03-03T04:13:25.180Z,62.10
2023-03-03T04:14:25.472Z,60.70
2023-03-03T04:15:25.819Z,63.40
2023-03-03T04:16:26.043Z,68.20
2023-03-03T04:17:26.348Z,61.20
2023-03-03T04:18:26.656Z,63.60
2023-03-03T04:19:26.942Z,57.30
2023-03-03T04:20:27.249Z,74.90
2023-03-03T04:21:27.537Z,65.70
2023-03-03T04:22:27.835Z,77.30
2023-03-03T04:23:28.124Z,88.90
2023-03-03T04:24:28.432Z,84.20
2023-03-03T04:25:28.757Z,84.80
2023-03-03T04:26:29.055Z,93.70
2023-03-03T04:27:29.360Z,67.00
2023-03-03T04:28:29.682Z,71.90
2023-03-03T04:29:29.966Z,68.30
2023-03-03T04:30:30.297Z,63.60
2023-03-03T04:31:30.562Z,65.10
2023-03-03T04:32:30.840Z,81.30
2023-03-03T04:33:31.105Z,63.20
2023-03-03T04:34:31.347Z,74.70
2023-03-03T04:35:31.692Z,90.60
2023-03-03T04:36:31.915Z,60.70
2023-03-03T04:37:32.225Z,63.90
2023-03-03T04:38:32.522Z,59.60
2023-03-03T04:39:32.829Z,60.30
2023-03-03T04:40:33.154Z,64.00
2023-03-03T04:41:33.463Z,56.80
2023-03-03T04:42:33.759Z,60.90
2023-03-03T04:43:34.064Z,55.00
2023-03-03T04:44:34.368Z,53.20
2023-03-03T04:45:34.700Z,58.90
2023-03-03T04:46:35.069Z,53.10
2023-03-03T04:47:35.286Z,57.20
2023-03-03T04:48:35.583Z,72.20
2023-03-03T04:49:35.902Z,74.40
2023-03-03T04:50:36.233Z,90.80
2023-03-03T04:51:36.541Z,85.80
2023-03-03T04:52:36.858Z,71.40
2023-03-03T04:53:37.173Z,56.90
2023-03-03T04:54:37.483Z,93.20
2023-03-03T04:55:37.801Z,63.90
2023-03-03T04:56:38.158Z,62.70
2023-03-03T04:57:38.471Z,77.70
2023-03-03T04:58:38.792Z,78.30
2023-03-03T04:59:39.112Z,88.60
2023-03-03T05:00:39.473Z,71.70
2023-03-03T05:01:39.901Z,69.20
2023-03-03T05:02:40.095Z,94.60
2023-03-03T05:03:40.366Z,69.30
2023-03-03T05:04:40.638Z,96.80
2023-03-03T05:05:40.951Z,65.00
2023-03-03T05:06:41.167Z,65.70
2023-03-03T05:07:41.516Z,72.50
2023-03-03T05:08:41.828Z,71.20
2023-03-03T05:09:42.158Z,64.60
2023-03-03T05:10:42.506Z,71.90
2023-03-03T05:11:42.834Z,71.80
2023-03-03T05:12:43.160Z,75.50
2023-03-03T05:13:43.498Z,71.40
2023-03-03T05:14:43.826Z,59.60
2023-03-03T05:15:45.094Z,69.10
2023-03-03T05:16:44.443Z,61.20
2023-03-03T05:17:44.752Z,58.30
2023-03-03T05:18:45.014Z,56.80
2023-03-03T05:19:45.351Z,64.40
2023-03-03T05:20:45.702Z,57.50
2023-03-03T05:21:46.054Z,56.30
2023-03-03T05:22:46.322Z,55.10
2023-03-03T05:23:46.674Z,63.00
2023-03-03T05:24:46.904Z,64.10
2023-03-03T05:25:47.259Z,60.20
2023-03-03T05:26:47.619Z,54.40
2023-03-03T05:27:47.985Z,55.20
2023-03-03T05:28:48.173Z,54.00
2023-03-03T05:29:48.494Z,69.40
2023-03-03T05:30:48.836Z,66.90
2023-03-03T05:31:49.221Z,59.20
2023-03-03T05:32:49.417Z,66.90
2023-03-03T05:33:49.708Z,71.60
2023-03-03T05:34:50.014Z,73.10
2023-03-03T05:35:50.393Z,70.60
2023-03-03T05:36:50.621Z,84.10
2023-03-03T05:37:50.972Z,65.30
2023-03-03T05:38:51.332Z,69.70
2023-03-03T05:39:51.698Z,86.80
2023-03-03T05:40:51.940Z,129.50
2023-03-03T05:41:52.333Z,65.00
2023-03-03T05:42:52.637Z,76.40
2023-03-03T05:43:52.918Z,66.60
2023-03-03T05:44:53.142Z,75.70
2023-03-03T05:45:53.520Z,54.60
2023-03-03T05:46:53.855Z,66.20
2023-03-03T05:47:54.111Z,81.10
2023-03-03T05:48:54.389Z,61.80
2023-03-03T05:49:54.644Z,74.40
2023-03-03T05:50:54.892Z,107.90
2023-03-03T05:51:55.146Z,80.80
2023-03-03T05:52:55.400Z,68.70
2023-03-03T05:53:56.619Z,58.00
2023-03-03T05:54:55.981Z,56.20
2023-03-03T05:55:56.259Z,79.00
2023-03-03T05:56:56.525Z,59.40
2023-03-03T05:57:56.778Z,64.00
2023-03-03T05:58:57.037Z,69.10
2023-03-03T05:59:57.294Z,55.00
2023-03-03T06:00:57.580Z,53.40
2023-03-03T06:01:57.874Z,79.60
2023-03-03T06:02:58.183Z,57.60
2023-03-03T06:03:58.420Z,53.70
2023-03-03T06:04:58.677Z,52.60
2023-03-03T06:05:58.961Z,90.00
2023-03-03T06:06:59.208Z,61.80
2023-03-03T06:07:59.467Z,54.20
2023-03-03T06:08:59.738Z,54.00
2023-03-03T06:09:59.988Z,52.60
2023-03-03T06:11:00.257Z,54.30
2023-03-03T06:12:00.527Z,51.50
2023-03-03T06:13:00.791Z,59.10
2023-03-03T06:14:01.038Z,57.70
2023-03-03T06:15:01.284Z,52.30
2023-03-03T06:16:01.606Z,55.20
2023-03-03T06:17:01.830Z,58.80
2023-03-03T06:18:02.204Z,53.60
2023-03-03T06:19:02.449Z,61.10
2023-03-03T06:20:02.801Z,73.00
2023-03-03T06:21:03.092Z,59.00
2023-03-03T06:22:03.348Z,54.80
2023-03-03T06:23:03.588Z,54.40
2023-03-03T06:24:03.859Z,58.80
2023-03-03T06:25:04.093Z,54.70
2023-03-03T06:26:04.475Z,49.70
2023-03-03T06:27:04.702Z,50.70
2023-03-03T06:28:05.068Z,49.30
2023-03-03T06:29:05.394Z,48.20
2023-03-03T06:30:05.738Z,46.30
2023-03-03T06:31:06.099Z,61.80
2023-03-03T06:32:06.563Z,48.40
2023-03-03T06:33:06.727Z,53.70
2023-03-03T06:34:07.083Z,53.30
2023-03-03T06:35:07.410Z,53.70
2023-03-03T06:36:07.766Z,76.90
2023-03-03T06:37:08.106Z,60.70
2023-03-03T06:38:08.451Z,55.80
2023-03-03T06:39:08.785Z,55.60
2023-03-03T06:40:09.138Z,74.70
2023-03-03T06:41:09.533Z,48.70
2023-03-03T06:42:09.800Z,45.30
2023-03-03T06:43:10.038Z,44.70
2023-03-03T06:44:10.383Z,50.30
2023-03-03T06:45:10.632Z,47.40
2023-03-03T06:46:10.998Z,58.20
2023-03-03T06:47:11.209Z,66.20
2023-03-03T06:48:11.579Z,54.50
2023-03-03T06:49:11.807Z,47.20
2023-03-03T06:50:12.168Z,45.20
2023-03-03T06:51:12.418Z,47.90
2023-03-03T06:52:12.675Z,57.60
2023-03-03T06:53:12.897Z,44.90
2023-03-03T06:54:13.237Z,44.90
2023-03-03T06:55:13.592Z,57.60
2023-03-03T06:56:13.878Z,48.00
2023-03-03T06:57:14.087Z,46.50
2023-03-03T06:58:14.446Z,77.50
2023-03-03T06:59:14.783Z,65.90
2023-03-03T07:00:15.113Z,61.60
2023-03-03T07:01:15.527Z,56.90
2023-03-03T07:02:15.747Z,53.70
2023-03-03T07:03:16.083Z,60.10
2023-03-03T07:04:16.486Z,53.60
2023-03-03T07:05:16.676Z,55.90
2023-03-03T07:06:17.125Z,56.50
2023-03-03T07:07:17.344Z,52.80
2023-03-03T07:08:17.644Z,71.20
2023-03-03T07:09:17.887Z,58.30
2023-03-03T07:10:18.142Z,61.20
2023-03-03T07:11:18.506Z,60.50
2023-03-03T07:12:18.727Z,69.60
2023-03-03T07:13:19.060Z,65.30
2023-03-03T07:14:19.418Z,62.70
2023-03-03T07:15:19.711Z,79.80
2023-03-03T07:16:20.078Z,105.80
2023-03-03T07:17:20.383Z,58.80
2023-03-03T07:18:20.693Z,59.70
2023-03-03T07:19:21.022Z,64.70
2023-03-03T07:20:21.376Z,71.50
2023-03-03T07:21:21.620Z,73.30
2023-03-03T07:22:21.943Z,71.50
2023-03-03T07:23:22.267Z,60.10
2023-03-03T07:24:22.603Z,57.00
2023-03-03T07:25:22.926Z,57.10
2023-03-03T07:26:23.298Z,51.60
2023-03-03T07:27:23.521Z,49.80
2023-03-03T07:28:23.875Z,60.90
2023-03-03T07:29:24.188Z,51.60
2023-03-03T07:30:24.537Z,58.80
2023-03-03T07:31:24.892Z,53.80
2023-03-03T07:32:25.179Z,52.50
2023-03-03T07:33:25.393Z,55.00
2023-03-03T07:34:25.715Z,49.70
2023-03-03T07:35:26.170Z,50.60
2023-03-03T07:36:26.421Z,54.70
2023-03-03T07:37:26.738Z,72.70
2023-03-03T07:38:27.071Z,52.80
2023-03-03T07:39:27.360Z,55.00
2023-03-03T07:40:27.714Z,92.60
2023-03-03T07:41:28.053Z,58.10
2023-03-03T07:42:28.269Z,53.60
2023-03-03T07:43:28.638Z,58.20
2023-03-03T07:44:28.870Z,62.50
2023-03-03T07:45:29.194Z,52.50
2023-03-03T07:46:29.596Z,50.70
2023-03-03T07:47:29.786Z,64.00
2023-03-03T07:48:30.119Z,52.80
2023-03-03T07:49:30.472Z,43.20
2023-03-03T07:50:30.805Z,52.00
2023-03-03T07:51:31.162Z,42.90
2023-03-03T07:52:31.397Z,51.20
2023-03-03T07:53:31.740Z,47.60
2023-03-03T07:54:32.103Z,49.10
2023-03-03T07:55:32.437Z,43.30
2023-03-03T07:56:32.811Z,40.50
2023-03-03T07:57:33.020Z,40.00
2023-03-03T07:58:33.376Z,45.40
2023-03-03T07:59:33.626Z,37.50
2023-03-03T08:00:33.901Z,39.00
2023-03-03T08:01:34.131Z,38.30
2023-03-03T08:02:34.372Z,37.40
2023-03-03T08:03:34.684Z,40.30
2023-03-03T08:04:35.070Z,38.20
2023-03-03T08:05:35.311Z,37.90
2023-03-03T08:06:35.664Z,42.50
2023-03-03T08:07:35.851Z,36.30
2023-03-03T08:08:36.183Z,38.20
2023-03-03T08:09:36.533Z,52.90
2023-03-03T08:10:36.862Z,42.00
2023-03-03T08:11:37.102Z,48.20
2023-03-03T08:12:37.429Z,43.90
2023-03-03T08:13:37.765Z,34.90
2023-03-03T08:14:38.086Z,34.80
2023-03-03T08:15:38.410Z,41.40
2023-03-03T08:16:38.778Z,36.50
2023-03-03T08:17:38.979Z,39.70
2023-03-03T08:18:39.299Z,40.50
2023-03-03T08:19:39.620Z,42.20
2023-03-03T08:20:39.933Z,41.80
2023-03-03T08:21:40.261Z,44.70
2023-03-03T08:22:40.554Z,50.80
2023-03-03T08:23:40.874Z,47.30
2023-03-03T08:24:41.194Z,45.70
2023-03-03T08:25:41.504Z,57.60
2023-03-03T08:26:41.846Z,46.80
2023-03-03T08:27:42.203Z,40.70
2023-03-03T08:28:42.423Z,38.50
2023-03-03T08:29:42.783Z,38.20
2023-03-03T08:30:43.030Z,40.30
2023-03-03T08:31:43.395Z,41.70
2023-03-03T08:32:43.844Z,49.60
2023-03-03T08:33:43.866Z,36.90
2023-03-03T08:34:44.201Z,36.20
2023-03-03T08:35:44.533Z,36.60
2023-03-03T08:36:44.793Z,49.10
2023-03-03T08:37:45.020Z,37.50
2023-03-03T08:38:45.329Z,33.50
2023-03-03T08:39:45.650Z,42.90
2023-03-03T08:40:45.945Z,39.30
2023-03-03T08:41:46.263Z,35.00
2023-03-03T08:42:46.563Z,42.60
2023-03-03T08:43:46.861Z,44.10
2023-03-03T08:44:47.153Z,32.90
2023-03-03T08:45:47.455Z,35.80
2023-03-03T08:46:47.859Z,44.00
2023-03-03T08:47:48.102Z,35.40
2023-03-03T08:48:48.394Z,27.00
2023-03-03T08:49:48.687Z,39.10
2023-03-03T08:50:48.998Z,28.60
2023-03-03T08:51:49.339Z,26.00
2023-03-03T08:52:49.508Z,29.80
2023-03-03T08:53:49.805Z,35.10
2023-03-03T08:54:50.100Z,30.30
2023-03-03T08:55:50.434Z,31.90
2023-03-03T08:56:50.735Z,25.70
2023-03-03T08:57:51.050Z,26.50
2023-03-03T08:59:02.278Z,27.70
2023-03-03T08:59:52.603Z,29.00
2023-03-03T09:00:52.172Z,27.50
2023-03-03T09:01:52.327Z,31.40
2023-03-03T09:02:52.469Z,27.70
2023-03-03T09:03:52.785Z,25.80
2023-03-03T09:04:53.133Z,27.00
2023-03-03T09:05:53.429Z,24.30
2023-03-03T09:06:53.787Z,24.30
2023-03-03T09:07:53.973Z,28.00
2023-03-03T09:08:54.256Z,24.10
2023-03-03T09:09:54.556Z,26.00
2023-03-03T09:10:54.860Z,27.10
2023-03-03T09:11:55.179Z,26.80
2023-03-03T09:12:55.473Z,26.10
2023-03-03T09:13:55.764Z,26.50
2023-03-03T09:14:56.045Z,26.20
2023-03-03T09:15:56.364Z,28.70
2023-03-03T09:16:56.630Z,26.10
2023-03-03T09:18:03.957Z,26.40
2023-03-03T09:18:58.091Z,26.50
2023-03-03T09:19:57.495Z,25.10
2023-03-03T09:20:57.800Z,24.20
2023-03-03T09:21:58.136Z,22.40
2023-03-03T09:22:58.417Z,25.60
2023-03-03T09:23:58.728Z,27.20
2023-03-03T09:24:59.079Z,24.40
2023-03-03T09:25:59.252Z,22.70
2023-03-03T09:26:59.616Z,22.60
2023-03-03T09:27:59.784Z,23.80
2023-03-03T09:29:00.074Z,21.60
2023-03-03T09:30:00.343Z,24.70
2023-03-03T09:31:00.614Z,22.90
2023-03-03T09:32:01.218Z,21.90
2023-03-03T09:33:01.182Z,22.60
2023-03-03T09:34:01.473Z,25.60
2023-03-03T09:35:01.732Z,26.30
2023-03-03T09:36:02.062Z,24.00
2023-03-03T09:37:02.366Z,22.90
2023-03-03T09:38:02.651Z,24.50
2023-03-03T09:39:02.940Z,22.40
2023-03-03T09:40:03.243Z,26.00
2023-03-03T09:41:03.549Z,25.00
2023-03-03T09:42:03.860Z,24.90
2023-03-03T09:43:04.151Z,23.20
2023-03-03T09:44:04.437Z,22.30
2023-03-03T09:45:04.704Z,22.60
2023-03-03T09:46:04.997Z,23.40
2023-03-03T09:47:05.295Z,25.50
2023-03-03T09:48:05.575Z,24.20
2023-03-03T09:49:05.831Z,22.60
2023-03-03T09:50:06.102Z,23.60
2023-03-03T09:51:06.350Z,23.60
2023-03-03T09:52:06.657Z,24.80
2023-03-03T09:53:06.922Z,24.50
2023-03-03T09:54:07.193Z,26.60
2023-03-03T09:55:07.452Z,25.70
2023-03-03T09:56:07.742Z,23.90
2023-03-03T09:57:08.025Z,23.10
2023-03-03T09:58:11.249Z,24.60
2023-03-03T09:59:08.492Z,24.70
2023-03-03T10:00:08.791Z,24.90
2023-03-03T10:01:09.047Z,21.20
2023-03-03T10:02:09.366Z,24.40
2023-03-03T10:03:09.674Z,22.20
2023-03-03T10:04:09.957Z,23.80
2023-03-03T10:05:10.226Z,20.70
2023-03-03T10:06:10.489Z,20.10
2023-03-03T10:07:10.784Z,19.40
2023-03-03T10:08:11.066Z,21.60
2023-03-03T10:09:11.322Z,20.70
2023-03-03T10:10:11.604Z,21.40
2023-03-03T10:11:11.881Z,22.90
2023-03-03T10:12:12.158Z,22.30
2023-03-03T10:13:12.420Z,23.90
2023-03-03T10:14:12.732Z,24.10
2023-03-03T10:15:12.989Z,21.60
2023-03-03T10:16:13.303Z,21.60
2023-03-03T10:17:13.579Z,23.70
2023-03-03T10:18:13.873Z,31.30
2023-03-03T10:19:14.129Z,25.00
2023-03-03T10:20:14.426Z,58.60
2023-03-03T10:21:14.719Z,43.30
2023-03-03T10:22:15.005Z,33.70
2023-03-03T10:23:15.265Z,39.90
2023-03-03T10:24:15.653Z,33.30
2023-03-03T10:25:15.841Z,34.80
2023-03-03T10:26:16.108Z,32.20
2023-03-03T10:27:16.425Z,30.70
2023-03-03T10:28:16.719Z,27.20
2023-03-03T10:29:22.207Z,26.20
2023-03-03T10:30:21.977Z,30.20
2023-03-03T10:31:19.631Z,32.60
2023-03-03T10:32:18.459Z,83.90
2023-03-03T10:33:18.202Z,47.60
2023-03-03T10:34:18.293Z,46.20
2023-03-03T10:35:18.664Z,26.70
2023-03-03T10:36:18.862Z,27.90
2023-03-03T10:37:19.145Z,25.40
2023-03-03T10:38:19.411Z,27.40
2023-03-03T10:39:19.890Z,24.80
2023-03-03T10:40:20.004Z,24.20
2023-03-03T10:41:20.158Z,26.00
2023-03-03T10:42:20.438Z,31.60
2023-03-03T10:43:31.013Z,24.80
2023-03-03T10:44:21.946Z,26.00
2023-03-03T10:45:21.200Z,25.80
2023-03-03T10:46:21.468Z,21.80
2023-03-03T10:47:21.748Z,24.90
2023-03-03T10:48:22.034Z,24.80
2023-03-03T10:49:22.303Z,27.80
2023-03-03T10:50:22.579Z,31.10
2023-03-03T10:51:22.837Z,50.10
2023-03-03T10:52:23.128Z,33.30
2023-03-03T10:53:23.400Z,32.40
2023-03-03T10:54:23.666Z,29.80
2023-03-03T10:55:23.924Z,27.20
2023-03-03T10:56:24.197Z,28.70
2023-03-03T10:57:24.478Z,33.90
2023-03-03T10:58:24.885Z,36.60
2023-03-03T10:59:25.027Z,42.70
2023-03-03T11:00:25.296Z,32.40
2023-03-03T11:01:25.640Z,29.20
2023-03-03T11:02:25.919Z,49.60
2023-03-03T11:03:26.168Z,33.60
2023-03-03T11:04:26.468Z,42.10
2023-03-03T11:05:26.749Z,41.40
2023-03-03T11:06:26.999Z,33.90
2023-03-03T11:07:27.282Z,41.80
2023-03-03T11:08:27.667Z,35.60
2023-03-03T11:09:27.809Z,40.50
2023-03-03T11:10:28.083Z,40.40
2023-03-03T11:11:28.361Z,35.50
2023-03-03T11:12:28.645Z,35.60
2023-03-03T11:13:28.892Z,37.60
2023-03-03T11:14:29.235Z,39.60
2023-03-03T11:15:29.464Z,36.60
2023-03-03T11:16:29.792Z,41.50
2023-03-03T11:17:30.071Z,37.50
2023-03-03T11:18:30.337Z,43.60
2023-03-03T11:19:30.607Z,54.50
2023-03-03T11:20:30.901Z,42.60
2023-03-03T11:21:31.122Z,37.60
2023-03-03T11:22:31.413Z,37.60
2023-03-03T11:23:31.657Z,34.30
2023-03-03T11:24:31.992Z,36.40
2023-03-03T11:25:32.241Z,39.50
2023-03-03T11:26:32.541Z,35.30
2023-03-03T11:27:32.843Z,37.80
2023-03-03T11:28:33.105Z,35.40
2023-03-03T11:29:33.393Z,37.20
2023-03-03T11:30:33.676Z,35.20
2023-03-03T11:31:33.946Z,37.80
2023-03-03T11:32:34.257Z,38.70
2023-03-03T11:33:34.498Z,41.10
2023-03-03T11:34:34.760Z,43.40
2023-03-03T11:35:35.066Z,42.90
2023-03-03T11:36:35.377Z,44.60
2023-03-03T11:37:35.648Z,40.50
2023-03-03T11:38:35.962Z,46.80
2023-03-03T11:39:36.234Z,41.40
2023-03-03T11:40:36.485Z,38.40
2023-03-03T11:41:36.747Z,41.20
2023-03-03T11:42:37.047Z,45.40
2023-03-03T11:43:37.842Z,42.20
2023-03-03T11:44:37.639Z,39.40
2023-03-03T11:45:37.884Z,39.30
2023-03-03T11:46:38.163Z,52.80
2023-03-03T11:47:38.435Z,37.00
2023-03-03T11:48:38.685Z,34.50
2023-03-03T11:49:38.934Z,37.30
2023-03-03T11:50:39.206Z,37.90
2023-03-03T11:51:39.453Z,38.40
2023-03-03T11:52:39.725Z,36.40
2023-03-03T11:53:39.973Z,35.60
2023-03-03T11:54:40.246Z,38.70
2023-03-03T11:55:40.494Z,35.70
2023-03-03T11:56:40.775Z,37.10
2023-03-03T11:57:41.059Z,36.40
2023-03-03T11:58:41.330Z,36.50
2023-03-03T11:59:41.596Z,37.80
2023-03-03T12:00:41.875Z,41.20
2023-03-03T12:01:42.140Z,38.00
2023-03-03T12:02:42.481Z,35.30
2023-03-03T12:03:42.737Z,34.60
2023-03-03T12:04:43.024Z,34.10
2023-03-03T12:05:43.366Z,34.80
2023-03-03T12:06:43.538Z,37.80
2023-03-03T12:07:43.805Z,40.90
2023-03-03T12:08:44.085Z,43.30
2023-03-03T12:09:44.383Z,42.00
2023-03-03T12:10:44.656Z,37.10
2023-03-03T12:11:44.914Z,37.30
2023-03-03T12:12:45.197Z,39.00
2023-03-03T12:13:45.448Z,37.20
2023-03-03T12:14:45.711Z,39.30
2023-03-03T12:15:45.977Z,39.30
2023-03-03T12:16:46.226Z,38.10
2023-03-03T12:17:47.216Z,35.50
2023-03-03T12:18:50.715Z,37.70
2023-03-03T12:19:47.057Z,38.20
2023-03-03T12:20:47.336Z,35.40
2023-03-03T12:21:47.629Z,39.70
2023-03-03T12:22:57.728Z,37.30
2023-03-03T12:23:56.028Z,34.90
2023-03-03T12:24:48.338Z,36.70
2023-03-03T12:25:48.587Z,37.10
2023-03-03T12:26:48.852Z,38.30
2023-03-03T12:27:49.105Z,36.60
2023-03-03T12:28:49.368Z,37.00
2023-03-03T12:29:49.633Z,38.20
2023-03-03T12:30:49.898Z,37.00
2023-03-03T12:31:50.147Z,39.20
2023-03-03T12:32:50.433Z,38.40
2023-03-03T12:33:50.684Z,36.00
2023-03-03T12:34:50.922Z,35.10
2023-03-03T12:35:51.201Z,33.50
2023-03-03T12:36:51.464Z,36.70
2023-03-03T12:37:51.732Z,37.00
2023-03-03T12:38:51.980Z,35.90
2023-03-03T12:39:52.238Z,36.90
2023-03-03T12:40:52.514Z,36.30
2023-03-03T12:41:52.765Z,36.30
2023-03-03T12:42:53.035Z,40.60
2023-03-03T12:43:53.278Z,37.20
2023-03-03T12:44:53.531Z,38.20
2023-03-03T12:45:53.789Z,41.80
2023-03-03T12:46:54.109Z,38.30
2023-03-03T12:47:54.297Z,36.30
2023-03-03T12:48:54.557Z,39.60
2023-03-03T12:50:06.574Z,41.80
2023-03-03T12:50:56.157Z,36.20
2023-03-03T12:51:55.293Z,35.90
2023-03-03T12:52:55.575Z,36.40
2023-03-03T12:53:55.855Z,39.80
2023-03-03T12:54:56.138Z,39.50
2023-03-03T12:55:56.402Z,39.70